Vers la page d'accueil de NAV CANADA Ouverture d'une nouvelle session Chercher sur le site AWWS Clause de non-reponsabilité To the equivalent English page Trucs et astuces FAQ Quoi de neuf sur le site Vers la section Prévisions et observations / NOTAM Vers le site web pour <<Déposer un plan de vol>> Publications et liens importants Mise à jour du profil d'usager Numéros de téléphone des FIC Mes données météo personnelles Données météo de route Données météo régionales Données météo locales Vers la section Prévisions et observations / NOTAM
Requête générée le 2021/09/16 à 16:14:55 UTC. L'information météorologique disponible à ce moment est affichée.

METAR/TAF

Si vous notez des différences entre le METAR/TAF codé et le METAR/TAF en langage clair, veuillez utiliser la version codée. Les bulletins LWIS ne sont pas décodés en langage clair.

MONTREAL/PIERRE-ELLIOTT-TRUDEAU INTL/QC    

METAR CYUL 161600Z 00000KT 30SM FEW032 BKN240 21/13 A3028 RMK CU2CI5 CC ASOCTD P254 DENSITY ALT 400FT=
METAR
LIEU
CYUL - MONTREAL/PIERRE-ELLIOTT-TRUDEAU INT
DATE - HEURE
16 SEPTEMBRE 2021 - 1600 UTC
VENT
CALME
VISIBILITE
30 MILLES TERR.
PORTEE VISUELLE DE PISTE
METEO
NEBULOSITE
QUELQUES NUAGES (1/8 - 2/8) 3200  PI
NUAGES FRAGMENTES (5/8 - 7/8) 24000  PI
TEMP / PT DE ROSEE
21 C / 13 C
ALTIMETRE
30.28 PO HG
TEMPS RECENT
CISAILLEMENT

METAR CYUL 161500Z 16005KT 130V200 30SM FEW032 FEW180 BKN230 19/11 A3027 RMK CF C2CI5 CF TR SLP253 DENSITY ALT 300FT=
METAR
LIEU
CYUL - MONTREAL/PIERRE-ELLIOTT-TRUDEAU INT
DATE - HEURE
16 SEPTEMBRE 2021 - 1500 UTC
VENT
160 VRAIS @ 5  NOEUDS
VARIATION
130 <-> 200  DEG
VISIBILITE
30 MILLES TERR.
PORTEE VISUELLE DE PISTE
METEO
NEBULOSITE
QUELQUES NUAGES (1/8 - 2/8) 3200  PI
QUELQUES NUAGES (1/8 - 2/8) 18000  PI
NUAGES FRAGMENTES (5/8 - 7/8) 23000  PI
TEMP / PT DE ROSEE
19 C / 11 C
ALTIMETRE
30.27 PO HG
TEMPS RECENT
CISAILLEMENT

METAR CYUL 161400Z VRB02KT 30SM FEW025 SCT250 18/13 A3028 RMK CU2CI2 SLP255 DEN TY ALT 200FT=
METAR
LIEU
CYUL - MONTREAL/PIERRE-ELLIOTT-TRUDEAU INT
DATE - HEURE
16 SEPTEMBRE 2021 - 1400 UTC
VENT
VRB @ 2  NOEUDS
VISIBILITE
30 MILLES TERR.
PORTEE VISUELLE DE PISTE
METEO
NEBULOSITE
QUELQUES NUAGES (1/8 - 2/8) 2500  PI
NUAGES EPARS (3/8 - 4/8) 25000  PI
TEMP / PT DE ROSEE
18 C / 13 C
ALTIMETRE
30.28 PO HG
TEMPS RECENT
CISAILLEMENT

TAF CYUL 161442Z 1615/1712 VRB03KT P6SM FEW025 SCT250 FM162000 11008KT P6SM SKC BECMG 1700/1702 06005KT RMK NXT FCST BY 161800Z=
TAF
LIEU

CYUL - MONTREAL/PIERRE-ELLIOTT-TRUDEAU INTL/QC
VALIDITE [UTC]
16 SEP - 1442 à
17 SEP - 1200
 
PERIODES
[UTC]
VENT
[DEGRES VRAIS]
VISIBILITE
[MILLES TERR.]
METEO
NEBULOSITE
[PIEDS AGL]
 
16 SEP - 1500 à
16 SEP - 2000
VARIABLE @ 3 NOEUDS
6+
---
2500 QUELQUES
25000 EPARS
 
16 SEP - 2000 à
17 SEP - 1200
110 @ 8 NOEUDS
6+
---
CIEL DEGAGE
CHANGEMENTS GRADUELS
17 SEP - 0000 à
17 SEP - 0200
60 @ 5 NOEUDS
 
 
 
REMARQUES
LA PREVISION SUIVANTE SERA EMISE POUR 1800 UTC LE 16


Votre heure Heure UTC
Données météorologiques fournies par Environnement Canada et NAV CANADA